createdAt,value
2022-09-16T00:00:05.532Z,100.00
2022-09-16T00:02:54.756Z,100.00
2022-09-16T00:05:43.204Z,100.00
2022-09-16T00:08:28.240Z,100.00
2022-09-16T00:11:13.575Z,100.00
2022-09-16T00:13:58.957Z,100.00
2022-09-16T00:16:44.826Z,100.00
2022-09-16T00:19:29.945Z,100.00
2022-09-16T00:22:15.249Z,100.00
2022-09-16T00:25:00.557Z,100.00
2022-09-16T00:27:47.496Z,100.00
2022-09-16T00:30:32.545Z,100.00
2022-09-16T00:33:18.739Z,100.00
2022-09-16T00:36:04.935Z,100.00
2022-09-16T00:38:51.084Z,100.00
2022-09-16T00:41:37.625Z,100.00
2022-09-16T00:44:41.792Z,100.00
2022-09-16T00:47:32.989Z,100.00
2022-09-16T00:50:30.392Z,100.00
2022-09-16T00:53:17.624Z,100.00
2022-09-16T00:56:05.410Z,100.00
2022-09-16T00:58:56.592Z,100.00
2022-09-16T01:01:44.680Z,100.00
2022-09-16T01:04:32.658Z,100.00
2022-09-16T01:07:23.911Z,100.00
2022-09-16T01:10:09.208Z,100.00
2022-09-16T01:12:55.425Z,100.00
2022-09-16T01:15:53.587Z,100.00
2022-09-16T01:18:42.924Z,100.00
2022-09-16T01:21:40.888Z,100.00
2022-09-16T01:24:29.250Z,100.00
2022-09-16T01:27:24.437Z,100.00
2022-09-16T01:30:18.754Z,100.00
2022-09-16T01:33:04.785Z,100.00
2022-09-16T01:35:56.241Z,100.00
2022-09-16T01:38:54.534Z,100.00
2022-09-16T01:41:48.709Z,100.00
2022-09-16T01:44:33.764Z,100.00
2022-09-16T01:47:37.821Z,100.00
2022-09-16T01:50:26.318Z,100.00
2022-09-16T01:53:19.285Z,100.00
2022-09-16T01:56:20.295Z,100.00
2022-09-16T01:59:09.595Z,100.00
2022-09-16T02:02:03.084Z,100.00
2022-09-16T02:04:51.075Z,100.00
2022-09-16T02:07:39.586Z,100.00
2022-09-16T02:10:28.593Z,100.00
2022-09-16T02:13:23.285Z,100.00
2022-09-16T02:16:11.227Z,100.00
2022-09-16T02:19:02.041Z,100.00
2022-09-16T02:21:47.496Z,100.00
2022-09-16T02:24:33.708Z,100.00
2022-09-16T02:27:20.979Z,100.00
2022-09-16T02:30:08.690Z,100.00
2022-09-16T02:32:57.999Z,100.00
2022-09-16T02:35:44.609Z,100.00
2022-09-16T02:38:34.104Z,100.00
2022-09-16T02:41:19.508Z,100.00
2022-09-16T02:44:05.491Z,100.00
2022-09-16T02:47:10.480Z,100.00
2022-09-16T02:49:57.617Z,100.00
2022-09-16T02:52:50.816Z,100.00
2022-09-16T02:55:46.314Z,100.00
2022-09-16T02:58:31.781Z,100.00
2022-09-16T03:01:17.686Z,100.00
2022-09-16T03:04:04.413Z,100.00
2022-09-16T03:06:49.915Z,100.00
2022-09-16T03:09:37.415Z,100.00
2022-09-16T03:12:38.477Z,100.00
2022-09-16T03:15:33.133Z,100.00
2022-09-16T03:18:32.882Z,100.00
2022-09-16T03:21:24.603Z,100.00
2022-09-16T03:24:12.474Z,100.00
2022-09-16T03:27:03.887Z,100.00
2022-09-16T03:29:52.737Z,100.00
2022-09-16T03:32:41.549Z,100.00
2022-09-16T03:35:29.463Z,100.00
2022-09-16T03:38:16.581Z,100.00
2022-09-16T03:41:03.325Z,100.00
2022-09-16T03:43:55.083Z,100.00
2022-09-16T03:46:41.538Z,100.00
2022-09-16T03:49:26.948Z,100.00
2022-09-16T03:52:12.337Z,100.00
2022-09-16T03:54:57.609Z,100.00
2022-09-16T03:57:42.624Z,100.00
2022-09-16T04:00:29.091Z,100.00
2022-09-16T04:03:14.364Z,100.00
2022-09-16T04:05:59.725Z,100.00
2022-09-16T04:08:45.112Z,100.00
2022-09-16T04:11:32.008Z,100.00
2022-09-16T04:14:17.224Z,100.00
2022-09-16T04:17:02.588Z,100.00
2022-09-16T04:19:47.635Z,100.00
2022-09-16T04:22:33.030Z,100.00
2022-09-16T04:25:18.627Z,100.00
2022-09-16T04:28:03.658Z,100.00
2022-09-16T04:30:48.923Z,100.00
2022-09-16T04:33:35.083Z,100.00
2022-09-16T04:36:20.617Z,100.00
2022-09-16T04:39:06.183Z,100.00
2022-09-16T04:41:51.305Z,100.00
2022-09-16T04:44:36.292Z,100.00
2022-09-16T04:47:22.699Z,100.00
2022-09-16T04:50:08.765Z,100.00
2022-09-16T04:52:54.275Z,100.00
2022-09-16T04:55:39.516Z,100.00
2022-09-16T04:58:24.839Z,100.00
2022-09-16T05:01:14.018Z,100.00
2022-09-16T05:04:00.256Z,100.00
2022-09-16T05:06:45.271Z,100.00
2022-09-16T05:09:30.437Z,100.00
2022-09-16T05:12:15.923Z,100.00
2022-09-16T05:15:01.347Z,100.00
2022-09-16T05:17:51.175Z,100.00
2022-09-16T05:20:37.508Z,100.00
2022-09-16T05:23:23.131Z,100.00
2022-09-16T05:26:10.501Z,100.00
2022-09-16T05:28:55.646Z,100.00
2022-09-16T05:31:41.787Z,100.00
2022-09-16T05:34:28.594Z,100.00
2022-09-16T05:37:13.919Z,100.00
2022-09-16T05:39:59.155Z,100.00
2022-09-16T05:42:44.230Z,100.00
2022-09-16T05:45:32.366Z,100.00
2022-09-16T05:48:18.037Z,100.00
2022-09-16T05:51:04.826Z,100.00
2022-09-16T05:53:52.396Z,100.00
2022-09-16T05:56:37.535Z,100.00
2022-09-16T05:59:24.029Z,100.00
2022-09-16T06:02:09.620Z,100.00
2022-09-16T06:04:54.740Z,100.00
2022-09-16T06:07:39.722Z,100.00
2022-09-16T06:10:25.204Z,100.00
2022-09-16T06:13:10.549Z,100.00
2022-09-16T06:15:56.186Z,100.00
2022-09-16T06:18:41.744Z,100.00
2022-09-16T06:21:27.675Z,100.00
2022-09-16T06:24:13.863Z,100.00
2022-09-16T06:26:59.036Z,100.00
2022-09-16T06:29:44.127Z,100.00
2022-09-16T06:32:32.415Z,100.00
2022-09-16T06:35:17.527Z,100.00
2022-09-16T06:38:03.688Z,100.00
2022-09-16T06:40:50.360Z,100.00
2022-09-16T06:43:35.704Z,100.00
2022-09-16T06:46:22.804Z,100.00
2022-09-16T06:49:10.833Z,100.00
2022-09-16T06:51:56.215Z,100.00
2022-09-16T06:54:41.920Z,100.00
2022-09-16T06:57:27.180Z,100.00
2022-09-16T07:00:14.181Z,100.00
2022-09-16T07:03:01.830Z,100.00
2022-09-16T07:05:57.755Z,99.57
2022-09-16T07:08:43.519Z,97.11
2022-09-16T07:11:28.809Z,98.58
2022-09-16T07:14:14.332Z,96.24
2022-09-16T07:17:00.518Z,93.08
2022-09-16T07:19:45.931Z,87.73
2022-09-16T07:22:32.209Z,87.44
2022-09-16T07:25:17.344Z,89.94
2022-09-16T07:28:03.359Z,84.65
2022-09-16T07:30:48.809Z,86.61
2022-09-16T07:33:38.206Z,84.03
2022-09-16T07:36:27.862Z,83.26
2022-09-16T07:39:14.606Z,84.80
2022-09-16T07:42:05.905Z,84.54
2022-09-16T07:44:51.693Z,79.27
2022-09-16T07:47:36.998Z,75.17
2022-09-16T07:50:22.270Z,77.44
2022-09-16T07:53:07.686Z,76.39
2022-09-16T07:55:53.603Z,74.26
2022-09-16T07:58:39.183Z,71.95
2022-09-16T08:01:24.999Z,73.37
2022-09-16T08:04:10.376Z,67.24
2022-09-16T08:06:55.555Z,68.25
2022-09-16T08:09:45.166Z,68.93
2022-09-16T08:12:35.585Z,68.08
2022-09-16T08:15:21.091Z,65.95
2022-09-16T08:18:06.388Z,63.71
2022-09-16T08:20:51.613Z,63.04
2022-09-16T08:23:37.147Z,63.92
2022-09-16T08:26:22.986Z,60.08
2022-09-16T08:29:09.830Z,61.54
2022-09-16T08:31:55.105Z,60.13
2022-09-16T08:34:40.511Z,58.73
2022-09-16T08:37:25.684Z,59.92
2022-09-16T08:40:15.169Z,58.78
2022-09-16T08:43:08.345Z,56.14
2022-09-16T08:46:09.542Z,53.06
2022-09-16T08:49:15.986Z,50.72
2022-09-16T08:52:03.116Z,51.60
2022-09-16T08:54:51.504Z,51.93
2022-09-16T08:57:40.003Z,51.91
2022-09-16T09:00:25.031Z,52.66
2022-09-16T09:03:17.350Z,51.91
2022-09-16T09:06:04.689Z,49.00
2022-09-16T09:08:55.821Z,48.53
2022-09-16T09:12:05.247Z,50.28
2022-09-16T09:14:50.558Z,53.79
2022-09-16T09:17:51.382Z,51.81
2022-09-16T09:20:36.377Z,50.17
2022-09-16T09:23:27.887Z,50.31
2022-09-16T09:26:18.762Z,46.53
2022-09-16T09:29:12.120Z,45.74
2022-09-16T09:31:57.252Z,49.91
2022-09-16T09:34:42.711Z,48.86
2022-09-16T09:37:44.009Z,51.21
2022-09-16T09:40:58.720Z,48.61
2022-09-16T09:43:51.764Z,50.52
2022-09-16T09:46:40.131Z,50.75
2022-09-16T09:49:33.826Z,49.94
2022-09-16T09:52:22.895Z,52.99
2022-09-16T09:55:16.455Z,56.16
2022-09-16T09:58:02.083Z,57.26
2022-09-16T10:00:48.006Z,58.85
2022-09-16T10:03:33.126Z,54.32
2022-09-16T10:06:22.531Z,47.69
2022-09-16T10:09:12.865Z,43.33
2022-09-16T10:11:57.924Z,43.26
2022-09-16T10:14:46.120Z,43.09
2022-09-16T10:17:32.271Z,42.06
2022-09-16T10:20:24.556Z,49.57
2022-09-16T10:23:14.512Z,52.29
2022-09-16T10:26:18.441Z,53.63
2022-09-16T10:29:13.445Z,58.11
2022-09-16T10:32:04.073Z,58.85
2022-09-16T10:34:49.744Z,61.38
2022-09-16T10:37:36.451Z,62.54
2022-09-16T10:40:23.926Z,60.16
2022-09-16T10:43:14.507Z,58.58
2022-09-16T10:46:00.333Z,51.43
2022-09-16T10:48:46.662Z,45.62
2022-09-16T10:51:33.368Z,40.52
2022-09-16T10:54:23.829Z,46.99
2022-09-16T10:57:20.827Z,46.30
2022-09-16T11:00:19.834Z,44.30
2022-09-16T11:03:23.900Z,45.19
2022-09-16T11:06:24.677Z,48.54
2022-09-16T11:09:09.671Z,52.26
2022-09-16T11:12:14.580Z,44.67
2022-09-16T11:15:19.174Z,46.76
2022-09-16T11:18:22.762Z,45.38
2022-09-16T11:21:07.784Z,42.89
2022-09-16T11:24:10.046Z,43.61
2022-09-16T11:27:01.880Z,40.78
2022-09-16T11:30:05.664Z,37.26
2022-09-16T11:33:09.675Z,39.44
2022-09-16T11:36:03.861Z,41.73
2022-09-16T11:39:09.025Z,44.88
2022-09-16T11:41:59.954Z,43.19
2022-09-16T11:44:48.061Z,46.89
2022-09-16T11:47:46.081Z,49.71
2022-09-16T11:50:41.415Z,53.77
2022-09-16T11:53:38.316Z,65.67
2022-09-16T11:56:35.176Z,83.70
2022-09-16T11:59:38.851Z,94.36
2022-09-16T12:02:27.250Z,93.80
2022-09-16T12:05:21.445Z,95.48
2022-09-16T12:08:12.334Z,95.95
2022-09-16T12:11:00.500Z,97.64
2022-09-16T12:13:49.198Z,94.69
2022-09-16T12:16:40.885Z,92.03
2022-09-16T12:19:32.061Z,98.39
2022-09-16T12:22:31.209Z,94.63
2022-09-16T12:25:25.110Z,79.25
2022-09-16T12:28:17.477Z,59.85
2022-09-16T12:31:25.159Z,46.69
2022-09-16T12:34:28.166Z,49.62
2022-09-16T12:37:18.954Z,43.35
2022-09-16T12:40:04.989Z,50.44
2022-09-16T12:42:56.480Z,57.20
2022-09-16T12:46:00.287Z,64.50
2022-09-16T12:49:04.045Z,75.24
2022-09-16T12:52:01.038Z,74.23
2022-09-16T12:55:07.242Z,80.90
2022-09-16T12:58:07.435Z,84.44
2022-09-16T13:00:58.646Z,76.96
2022-09-16T13:03:58.082Z,63.98
2022-09-16T13:06:55.886Z,56.06
2022-09-16T13:09:41.507Z,48.76
2022-09-16T13:12:44.882Z,47.22
2022-09-16T13:15:34.391Z,57.01
2022-09-16T13:18:37.366Z,65.43
2022-09-16T13:21:27.604Z,70.54
2022-09-16T13:24:21.457Z,73.99
2022-09-16T13:27:27.479Z,71.08
2022-09-16T13:30:14.254Z,73.62
2022-09-16T13:33:01.147Z,67.95
2022-09-16T13:35:49.438Z,66.34
2022-09-16T13:38:36.684Z,59.93
2022-09-16T13:41:35.997Z,49.64
2022-09-16T13:44:39.664Z,46.93
2022-09-16T13:47:34.179Z,45.97
2022-09-16T13:50:22.773Z,47.57
2022-09-16T13:53:26.364Z,43.12
2022-09-16T13:56:30.396Z,44.84
2022-09-16T13:59:18.262Z,47.37
2022-09-16T14:02:13.086Z,43.83
2022-09-16T14:05:17.238Z,43.58
2022-09-16T14:08:08.415Z,48.09
2022-09-16T14:11:01.912Z,52.87
2022-09-16T14:14:04.845Z,50.38
2022-09-16T14:16:52.929Z,54.24
2022-09-16T14:19:38.704Z,58.04
2022-09-16T14:22:26.778Z,59.75
2022-09-16T14:25:32.282Z,63.03
2022-09-16T14:28:25.124Z,67.16
2022-09-16T14:31:14.550Z,73.98
2022-09-16T14:34:04.342Z,78.76
2022-09-16T14:36:49.837Z,77.90
2022-09-16T14:39:44.474Z,82.81
2022-09-16T14:42:30.294Z,84.80
2022-09-16T14:45:16.916Z,85.05
2022-09-16T14:48:05.664Z,84.55
2022-09-16T14:50:50.960Z,81.32
2022-09-16T14:53:38.389Z,82.37
2022-09-16T14:56:24.074Z,81.69
2022-09-16T14:59:13.870Z,81.17
2022-09-16T15:02:03.894Z,82.78
2022-09-16T15:04:52.369Z,84.51
2022-09-16T15:07:56.287Z,86.38
2022-09-16T15:10:52.381Z,85.49
2022-09-16T15:13:39.208Z,89.71
2022-09-16T15:16:24.831Z,95.13
2022-09-16T15:19:16.724Z,97.29
2022-09-16T15:22:02.539Z,99.16
2022-09-16T15:24:50.304Z,100.00
2022-09-16T15:27:35.651Z,100.00
2022-09-16T15:30:22.570Z,100.00
2022-09-16T15:33:22.945Z,100.00
2022-09-16T15:36:31.045Z,100.00
2022-09-16T15:39:29.697Z,100.00
2022-09-16T15:42:18.905Z,100.00
2022-09-16T15:45:12.256Z,100.00
2022-09-16T15:48:00.127Z,100.00
2022-09-16T15:50:51.406Z,100.00
2022-09-16T15:53:44.950Z,100.00
2022-09-16T15:56:30.079Z,100.00
2022-09-16T15:59:25.739Z,100.00
